sensor_id;sensor_type;location;lat;lon;timestamp;temperature;humidity
24450;DHT22;13349;50.984;5.822;2023-10-31T00:01:43;10.60;99.90
24450;DHT22;13349;50.984;5.822;2023-10-31T00:04:10;10.50;99.90
24450;DHT22;13349;50.984;5.822;2023-10-31T00:06:37;10.60;99.90
24450;DHT22;13349;50.984;5.822;2023-10-31T00:09:04;10.60;99.90
24450;DHT22;13349;50.984;5.822;2023-10-31T00:11:31;10.50;99.90
24450;DHT22;13349;50.984;5.822;2023-10-31T00:13:58;10.50;99.90
24450;DHT22;13349;50.984;5.822;2023-10-31T00:16:25;10.50;99.90
24450;DHT22;13349;50.984;5.822;2023-10-31T00:18:53;10.50;99.90
24450;DHT22;13349;50.984;5.822;2023-10-31T00:21:20;10.40;99.90
24450;DHT22;13349;50.984;5.822;2023-10-31T00:23:47;10.40;99.90
24450;DHT22;13349;50.984;5.822;2023-10-31T00:26:14;10.40;99.90
24450;DHT22;13349;50.984;5.822;2023-10-31T00:28:42;10.40;99.90
24450;DHT22;13349;50.984;5.822;2023-10-31T00:31:09;10.30;99.90
24450;DHT22;13349;50.984;5.822;2023-10-31T00:33:37;10.30;99.90
24450;DHT22;13349;50.984;5.822;2023-10-31T00:36:05;10.30;99.90
24450;DHT22;13349;50.984;5.822;2023-10-31T00:38:33;10.30;99.90
24450;DHT22;13349;50.984;5.822;2023-10-31T00:41:00;10.30;99.90
24450;DHT22;13349;50.984;5.822;2023-10-31T00:43:27;10.30;99.90
24450;DHT22;13349;50.984;5.822;2023-10-31T00:45:54;10.20;99.90
24450;DHT22;13349;50.984;5.822;2023-10-31T00:48:21;10.20;99.90
24450;DHT22;13349;50.984;5.822;2023-10-31T00:50:47;10.20;99.90
24450;DHT22;13349;50.984;5.822;2023-10-31T00:53:16;10.20;99.90
24450;DHT22;13349;50.984;5.822;2023-10-31T00:55:43;10.10;99.90
24450;DHT22;13349;50.984;5.822;2023-10-31T00:58:11;10.10;99.90
24450;DHT22;13349;50.984;5.822;2023-10-31T01:00:38;10.10;99.90
24450;DHT22;13349;50.984;5.822;2023-10-31T01:03:04;10.10;99.90
24450;DHT22;13349;50.984;5.822;2023-10-31T01:05:31;10.20;99.90
24450;DHT22;13349;50.984;5.822;2023-10-31T01:07:58;10.20;99.90
24450;DHT22;13349;50.984;5.822;2023-10-31T01:10:27;10.20;99.90
24450;DHT22;13349;50.984;5.822;2023-10-31T01:12:53;10.20;99.90
24450;DHT22;13349;50.984;5.822;2023-10-31T01:15:20;10.20;99.90
24450;DHT22;13349;50.984;5.822;2023-10-31T01:17:47;10.20;99.90
24450;DHT22;13349;50.984;5.822;2023-10-31T01:20:14;10.30;99.90
24450;DHT22;13349;50.984;5.822;2023-10-31T01:22:41;10.30;99.90
24450;DHT22;13349;50.984;5.822;2023-10-31T01:25:08;10.30;99.90
24450;DHT22;13349;50.984;5.822;2023-10-31T01:27:37;10.40;99.90
24450;DHT22;13349;50.984;5.822;2023-10-31T01:30:04;10.40;99.90
24450;DHT22;13349;50.984;5.822;2023-10-31T01:32:31;10.40;99.90
24450;DHT22;13349;50.984;5.822;2023-10-31T01:34:58;10.40;99.90
24450;DHT22;13349;50.984;5.822;2023-10-31T01:37:25;10.50;99.90
24450;DHT22;13349;50.984;5.822;2023-10-31T01:39:52;10.50;99.90
24450;DHT22;13349;50.984;5.822;2023-10-31T01:42:19;10.40;99.90
24450;DHT22;13349;50.984;5.822;2023-10-31T01:44:48;10.40;99.90
24450;DHT22;13349;50.984;5.822;2023-10-31T01:47:14;10.40;99.90
24450;DHT22;13349;50.984;5.822;2023-10-31T01:49:41;10.40;99.90
24450;DHT22;13349;50.984;5.822;2023-10-31T01:52:08;10.40;99.90
24450;DHT22;13349;50.984;5.822;2023-10-31T01:54:35;10.40;99.90
24450;DHT22;13349;50.984;5.822;2023-10-31T01:57:03;10.40;99.90
24450;DHT22;13349;50.984;5.822;2023-10-31T01:59:31;10.40;99.90
24450;DHT22;13349;50.984;5.822;2023-10-31T02:02:00;10.40;99.90
24450;DHT22;13349;50.984;5.822;2023-10-31T02:04:27;10.40;99.90
24450;DHT22;13349;50.984;5.822;2023-10-31T02:06:54;10.40;99.90
24450;DHT22;13349;50.984;5.822;2023-10-31T02:09:21;10.40;99.90
24450;DHT22;13349;50.984;5.822;2023-10-31T02:11:50;10.40;99.90
24450;DHT22;13349;50.984;5.822;2023-10-31T02:14:17;10.50;99.90
24450;DHT22;13349;50.984;5.822;2023-10-31T02:16:44;10.50;99.90
24450;DHT22;13349;50.984;5.822;2023-10-31T02:19:12;10.50;99.90
24450;DHT22;13349;50.984;5.822;2023-10-31T02:21:43;10.60;99.90
24450;DHT22;13349;50.984;5.822;2023-10-31T02:24:10;10.60;99.90
24450;DHT22;13349;50.984;5.822;2023-10-31T02:26:37;10.70;99.90
24450;DHT22;13349;50.984;5.822;2023-10-31T02:29:04;10.70;99.90
24450;DHT22;13349;50.984;5.822;2023-10-31T02:31:32;10.60;99.90
24450;DHT22;13349;50.984;5.822;2023-10-31T02:33:59;10.60;99.90
24450;DHT22;13349;50.984;5.822;2023-10-31T02:36:26;10.70;99.90
24450;DHT22;13349;50.984;5.822;2023-10-31T02:38:54;10.70;99.90
24450;DHT22;13349;50.984;5.822;2023-10-31T02:41:21;10.60;99.90
24450;DHT22;13349;50.984;5.822;2023-10-31T02:43:48;10.60;99.90
24450;DHT22;13349;50.984;5.822;2023-10-31T02:46:16;10.60;99.90
24450;DHT22;13349;50.984;5.822;2023-10-31T02:48:43;10.60;99.90
24450;DHT22;13349;50.984;5.822;2023-10-31T02:51:10;10.60;99.90
24450;DHT22;13349;50.984;5.822;2023-10-31T02:53:37;10.60;99.90
24450;DHT22;13349;50.984;5.822;2023-10-31T02:56:06;10.60;99.90
24450;DHT22;13349;50.984;5.822;2023-10-31T02:58:33;10.60;99.90
24450;DHT22;13349;50.984;5.822;2023-10-31T03:01:00;10.60;99.90
24450;DHT22;13349;50.984;5.822;2023-10-31T03:03:27;10.60;99.90
24450;DHT22;13349;50.984;5.822;2023-10-31T03:05:55;10.60;99.90
24450;DHT22;13349;50.984;5.822;2023-10-31T03:08:22;10.60;99.90
24450;DHT22;13349;50.984;5.822;2023-10-31T03:10:49;10.60;99.90
24450;DHT22;13349;50.984;5.822;2023-10-31T03:13:18;10.60;99.90
24450;DHT22;13349;50.984;5.822;2023-10-31T03:15:45;10.50;99.90
24450;DHT22;13349;50.984;5.822;2023-10-31T03:18:12;10.40;99.90
24450;DHT22;13349;50.984;5.822;2023-10-31T03:20:43;10.40;99.90
24450;DHT22;13349;50.984;5.822;2023-10-31T03:23:10;10.40;99.90
24450;DHT22;13349;50.984;5.822;2023-10-31T03:25:36;10.40;99.90
24450;DHT22;13349;50.984;5.822;2023-10-31T03:28:03;10.40;99.90
24450;DHT22;13349;50.984;5.822;2023-10-31T03:30:32;10.30;99.90
24450;DHT22;13349;50.984;5.822;2023-10-31T03:32:59;10.40;99.90
24450;DHT22;13349;50.984;5.822;2023-10-31T03:35:25;10.30;99.90
24450;DHT22;13349;50.984;5.822;2023-10-31T03:37:53;10.30;99.90
24450;DHT22;13349;50.984;5.822;2023-10-31T03:40:20;10.40;99.90
24450;DHT22;13349;50.984;5.822;2023-10-31T03:42:46;10.30;99.90
24450;DHT22;13349;50.984;5.822;2023-10-31T03:45:13;10.30;99.90
24450;DHT22;13349;50.984;5.822;2023-10-31T03:47:42;10.30;99.90
24450;DHT22;13349;50.984;5.822;2023-10-31T03:50:09;10.40;99.90
24450;DHT22;13349;50.984;5.822;2023-10-31T03:52:36;10.30;99.90
24450;DHT22;13349;50.984;5.822;2023-10-31T03:55:03;10.40;99.90
24450;DHT22;13349;50.984;5.822;2023-10-31T03:57:30;10.40;99.90
24450;DHT22;13349;50.984;5.822;2023-10-31T03:59:57;10.40;99.90
24450;DHT22;13349;50.984;5.822;2023-10-31T04:02:24;10.40;99.90
24450;DHT22;13349;50.984;5.822;2023-10-31T04:04:52;10.40;99.90
24450;DHT22;13349;50.984;5.822;2023-10-31T04:07:19;10.50;99.90
24450;DHT22;13349;50.984;5.822;2023-10-31T04:09:46;10.50;99.90
24450;DHT22;13349;50.984;5.822;2023-10-31T04:12:13;10.50;99.90
24450;DHT22;13349;50.984;5.822;2023-10-31T04:14:40;10.40;99.90
24450;DHT22;13349;50.984;5.822;2023-10-31T04:17:06;10.50;99.90
24450;DHT22;13349;50.984;5.822;2023-10-31T04:19:36;10.50;99.90
24450;DHT22;13349;50.984;5.822;2023-10-31T04:22:03;10.50;99.90
24450;DHT22;13349;50.984;5.822;2023-10-31T04:24:30;10.50;99.90
24450;DHT22;13349;50.984;5.822;2023-10-31T04:26:57;10.60;99.90
24450;DHT22;13349;50.984;5.822;2023-10-31T04:29:24;10.50;99.90
24450;DHT22;13349;50.984;5.822;2023-10-31T04:31:51;10.60;99.90
24450;DHT22;13349;50.984;5.822;2023-10-31T04:34:18;10.50;99.90
24450;DHT22;13349;50.984;5.822;2023-10-31T04:36:45;10.50;99.90
24450;DHT22;13349;50.984;5.822;2023-10-31T04:39:14;10.50;99.90
24450;DHT22;13349;50.984;5.822;2023-10-31T04:41:41;10.50;99.90
24450;DHT22;13349;50.984;5.822;2023-10-31T04:44:08;10.50;99.90
24450;DHT22;13349;50.984;5.822;2023-10-31T04:46:35;10.60;99.90
24450;DHT22;13349;50.984;5.822;2023-10-31T04:49:02;10.60;99.90
24450;DHT22;13349;50.984;5.822;2023-10-31T04:51:32;10.60;99.90
24450;DHT22;13349;50.984;5.822;2023-10-31T04:53:59;10.60;99.90
24450;DHT22;13349;50.984;5.822;2023-10-31T04:56:27;10.60;99.90
24450;DHT22;13349;50.984;5.822;2023-10-31T04:58:54;10.60;99.90
24450;DHT22;13349;50.984;5.822;2023-10-31T05:01:21;10.60;99.90
24450;DHT22;13349;50.984;5.822;2023-10-31T05:03:48;10.60;99.90
24450;DHT22;13349;50.984;5.822;2023-10-31T05:06:18;10.50;99.90
24450;DHT22;13349;50.984;5.822;2023-10-31T05:08:45;10.50;99.90
24450;DHT22;13349;50.984;5.822;2023-10-31T05:11:13;10.50;99.90
24450;DHT22;13349;50.984;5.822;2023-10-31T05:13:42;10.50;99.90
24450;DHT22;13349;50.984;5.822;2023-10-31T05:16:08;10.50;99.90
24450;DHT22;13349;50.984;5.822;2023-10-31T05:18:36;10.40;99.90
24450;DHT22;13349;50.984;5.822;2023-10-31T05:21:03;10.40;99.90
24450;DHT22;13349;50.984;5.822;2023-10-31T05:23:30;10.40;99.90
24450;DHT22;13349;50.984;5.822;2023-10-31T05:25:57;10.40;99.90
24450;DHT22;13349;50.984;5.822;2023-10-31T05:28:24;10.40;99.90
24450;DHT22;13349;50.984;5.822;2023-10-31T05:30:52;10.40;99.90
24450;DHT22;13349;50.984;5.822;2023-10-31T05:33:19;10.30;99.90
24450;DHT22;13349;50.984;5.822;2023-10-31T05:35:48;10.20;99.90
24450;DHT22;13349;50.984;5.822;2023-10-31T05:38:16;10.10;99.90
24450;DHT22;13349;50.984;5.822;2023-10-31T05:40:43;10.00;99.90
24450;DHT22;13349;50.984;5.822;2023-10-31T05:43:09;10.00;99.90
24450;DHT22;13349;50.984;5.822;2023-10-31T05:45:36;10.00;99.90
24450;DHT22;13349;50.984;5.822;2023-10-31T05:48:05;10.00;99.90
24450;DHT22;13349;50.984;5.822;2023-10-31T05:50:32;10.00;99.90
24450;DHT22;13349;50.984;5.822;2023-10-31T05:52:59;9.90;99.90
24450;DHT22;13349;50.984;5.822;2023-10-31T05:55:26;9.80;99.90
24450;DHT22;13349;50.984;5.822;2023-10-31T05:57:53;9.80;99.90
24450;DHT22;13349;50.984;5.822;2023-10-31T06:00:19;9.80;99.90
24450;DHT22;13349;50.984;5.822;2023-10-31T06:02:46;9.80;99.90
24450;DHT22;13349;50.984;5.822;2023-10-31T06:05:15;9.80;99.90
24450;DHT22;13349;50.984;5.822;2023-10-31T06:07:42;9.90;99.90
24450;DHT22;13349;50.984;5.822;2023-10-31T06:10:09;9.90;99.90
24450;DHT22;13349;50.984;5.822;2023-10-31T06:12:36;9.90;99.90
24450;DHT22;13349;50.984;5.822;2023-10-31T06:15:03;9.90;99.90
24450;DHT22;13349;50.984;5.822;2023-10-31T06:17:30;10.00;99.90
24450;DHT22;13349;50.984;5.822;2023-10-31T06:19:59;10.00;99.90
24450;DHT22;13349;50.984;5.822;2023-10-31T06:22:28;10.00;99.90
24450;DHT22;13349;50.984;5.822;2023-10-31T06:24:54;10.00;99.90
24450;DHT22;13349;50.984;5.822;2023-10-31T06:27:23;10.00;99.90
24450;DHT22;13349;50.984;5.822;2023-10-31T06:29:50;10.00;99.90
24450;DHT22;13349;50.984;5.822;2023-10-31T06:32:18;10.00;99.90
24450;DHT22;13349;50.984;5.822;2023-10-31T06:34:45;10.00;99.90
24450;DHT22;13349;50.984;5.822;2023-10-31T06:37:12;10.00;99.90
24450;DHT22;13349;50.984;5.822;2023-10-31T06:39:40;10.00;99.90
24450;DHT22;13349;50.984;5.822;2023-10-31T06:42:10;10.00;99.90
24450;DHT22;13349;50.984;5.822;2023-10-31T06:44:37;10.10;99.90
24450;DHT22;13349;50.984;5.822;2023-10-31T06:47:04;10.10;99.90
24450;DHT22;13349;50.984;5.822;2023-10-31T06:49:31;10.10;99.90
24450;DHT22;13349;50.984;5.822;2023-10-31T06:51:58;10.10;99.90
24450;DHT22;13349;50.984;5.822;2023-10-31T06:54:25;10.10;99.90
24450;DHT22;13349;50.984;5.822;2023-10-31T06:56:54;10.10;99.90
24450;DHT22;13349;50.984;5.822;2023-10-31T06:59:21;10.10;99.90
24450;DHT22;13349;50.984;5.822;2023-10-31T07:01:47;10.10;99.90
24450;DHT22;13349;50.984;5.822;2023-10-31T07:04:14;10.10;99.90
24450;DHT22;13349;50.984;5.822;2023-10-31T07:06:42;10.10;99.90
24450;DHT22;13349;50.984;5.822;2023-10-31T07:09:09;10.10;99.90
24450;DHT22;13349;50.984;5.822;2023-10-31T07:11:35;10.00;99.90
24450;DHT22;13349;50.984;5.822;2023-10-31T07:14:04;10.10;99.90
24450;DHT22;13349;50.984;5.822;2023-10-31T07:16:31;10.10;99.90
24450;DHT22;13349;50.984;5.822;2023-10-31T07:18:58;10.00;99.90
24450;DHT22;13349;50.984;5.822;2023-10-31T07:21:25;10.00;99.90
24450;DHT22;13349;50.984;5.822;2023-10-31T07:23:52;9.90;99.90
24450;DHT22;13349;50.984;5.822;2023-10-31T07:26:21;10.00;99.90
24450;DHT22;13349;50.984;5.822;2023-10-31T07:28:48;10.00;99.90
24450;DHT22;13349;50.984;5.822;2023-10-31T07:31:16;9.90;99.90
24450;DHT22;13349;50.984;5.822;2023-10-31T07:33:43;9.90;99.90
24450;DHT22;13349;50.984;5.822;2023-10-31T07:36:10;9.80;99.90
24450;DHT22;13349;50.984;5.822;2023-10-31T07:38:37;9.80;99.90
24450;DHT22;13349;50.984;5.822;2023-10-31T07:41:04;9.90;99.90
24450;DHT22;13349;50.984;5.822;2023-10-31T07:43:31;9.90;99.90
24450;DHT22;13349;50.984;5.822;2023-10-31T07:45:58;9.90;99.90
24450;DHT22;13349;50.984;5.822;2023-10-31T07:48:26;9.90;99.90
24450;DHT22;13349;50.984;5.822;2023-10-31T07:50:53;10.00;99.90
24450;DHT22;13349;50.984;5.822;2023-10-31T07:53:20;10.00;99.90
24450;DHT22;13349;50.984;5.822;2023-10-31T07:55:47;10.00;99.90
24450;DHT22;13349;50.984;5.822;2023-10-31T07:58:14;10.00;99.90
24450;DHT22;13349;50.984;5.822;2023-10-31T08:00:40;10.10;99.90
24450;DHT22;13349;50.984;5.822;2023-10-31T08:03:07;10.20;99.90
24450;DHT22;13349;50.984;5.822;2023-10-31T08:05:36;10.20;99.90
24450;DHT22;13349;50.984;5.822;2023-10-31T08:08:03;10.30;99.90
24450;DHT22;13349;50.984;5.822;2023-10-31T08:10:30;10.30;99.90
24450;DHT22;13349;50.984;5.822;2023-10-31T08:12:57;10.30;99.90
24450;DHT22;13349;50.984;5.822;2023-10-31T08:15:23;10.20;99.90
24450;DHT22;13349;50.984;5.822;2023-10-31T08:17:50;10.30;99.90
24450;DHT22;13349;50.984;5.822;2023-10-31T08:20:17;10.40;99.90
24450;DHT22;13349;50.984;5.822;2023-10-31T08:22:45;10.40;99.90
24450;DHT22;13349;50.984;5.822;2023-10-31T08:25:12;10.40;99.90
24450;DHT22;13349;50.984;5.822;2023-10-31T08:27:39;10.50;99.90
24450;DHT22;13349;50.984;5.822;2023-10-31T08:30:07;10.60;99.90
24450;DHT22;13349;50.984;5.822;2023-10-31T08:32:34;10.70;99.90
24450;DHT22;13349;50.984;5.822;2023-10-31T08:35:00;10.80;99.90
24450;DHT22;13349;50.984;5.822;2023-10-31T08:37:28;10.80;99.90
24450;DHT22;13349;50.984;5.822;2023-10-31T08:39:56;10.90;99.90
24450;DHT22;13349;50.984;5.822;2023-10-31T08:42:23;10.90;99.90
24450;DHT22;13349;50.984;5.822;2023-10-31T08:44:50;11.00;99.90
24450;DHT22;13349;50.984;5.822;2023-10-31T08:47:17;11.00;99.90
24450;DHT22;13349;50.984;5.822;2023-10-31T08:49:45;11.10;99.90
24450;DHT22;13349;50.984;5.822;2023-10-31T08:52:11;11.20;99.90
24450;DHT22;13349;50.984;5.822;2023-10-31T08:54:38;11.10;99.90
24450;DHT22;13349;50.984;5.822;2023-10-31T08:57:07;11.10;99.90
24450;DHT22;13349;50.984;5.822;2023-10-31T08:59:34;11.10;99.90
24450;DHT22;13349;50.984;5.822;2023-10-31T09:02:01;11.30;99.90
24450;DHT22;13349;50.984;5.822;2023-10-31T09:04:28;11.40;99.90
24450;DHT22;13349;50.984;5.822;2023-10-31T09:06:55;11.40;99.90
24450;DHT22;13349;50.984;5.822;2023-10-31T09:09:22;11.40;99.90
24450;DHT22;13349;50.984;5.822;2023-10-31T09:11:49;11.50;99.90
24450;DHT22;13349;50.984;5.822;2023-10-31T09:14:17;11.60;99.90
24450;DHT22;13349;50.984;5.822;2023-10-31T09:16:44;11.50;99.90
24450;DHT22;13349;50.984;5.822;2023-10-31T09:19:11;11.50;99.90
24450;DHT22;13349;50.984;5.822;2023-10-31T09:21:38;11.50;99.90
24450;DHT22;13349;50.984;5.822;2023-10-31T09:24:07;11.50;99.90
24450;DHT22;13349;50.984;5.822;2023-10-31T09:26:34;11.60;99.90
24450;DHT22;13349;50.984;5.822;2023-10-31T09:29:01;11.60;99.90
24450;DHT22;13349;50.984;5.822;2023-10-31T09:31:29;11.60;99.90
24450;DHT22;13349;50.984;5.822;2023-10-31T09:33:56;11.70;99.90
24450;DHT22;13349;50.984;5.822;2023-10-31T09:36:23;11.90;99.90
24450;DHT22;13349;50.984;5.822;2023-10-31T09:38:50;12.00;99.90
24450;DHT22;13349;50.984;5.822;2023-10-31T09:41:18;12.10;99.90
24450;DHT22;13349;50.984;5.822;2023-10-31T09:43:45;12.10;99.90
24450;DHT22;13349;50.984;5.822;2023-10-31T09:46:12;12.20;99.90
24450;DHT22;13349;50.984;5.822;2023-10-31T09:48:40;12.20;99.90
24450;DHT22;13349;50.984;5.822;2023-10-31T09:51:07;12.30;99.90
24450;DHT22;13349;50.984;5.822;2023-10-31T09:53:34;12.40;99.90
24450;DHT22;13349;50.984;5.822;2023-10-31T09:56:04;12.50;99.90
24450;DHT22;13349;50.984;5.822;2023-10-31T09:58:31;12.50;99.90
24450;DHT22;13349;50.984;5.822;2023-10-31T10:00:58;12.60;99.90
24450;DHT22;13349;50.984;5.822;2023-10-31T10:03:25;12.40;99.90
24450;DHT22;13349;50.984;5.822;2023-10-31T10:05:54;12.20;99.90
24450;DHT22;13349;50.984;5.822;2023-10-31T10:08:21;12.10;99.90
24450;DHT22;13349;50.984;5.822;2023-10-31T10:10:48;12.00;99.90
24450;DHT22;13349;50.984;5.822;2023-10-31T10:13:16;12.20;99.90
24450;DHT22;13349;50.984;5.822;2023-10-31T10:15:44;12.30;99.90
24450;DHT22;13349;50.984;5.822;2023-10-31T10:18:17;12.60;99.90
24450;DHT22;13349;50.984;5.822;2023-10-31T10:20:55;12.90;99.90
24450;DHT22;13349;50.984;5.822;2023-10-31T10:23:23;12.80;99.90
24450;DHT22;13349;50.984;5.822;2023-10-31T10:25:50;12.70;99.90
24450;DHT22;13349;50.984;5.822;2023-10-31T10:28:17;12.50;99.90
24450;DHT22;13349;50.984;5.822;2023-10-31T10:30:44;12.40;99.90
24450;DHT22;13349;50.984;5.822;2023-10-31T10:33:11;12.40;99.90
24450;DHT22;13349;50.984;5.822;2023-10-31T10:35:38;12.50;99.90
24450;DHT22;13349;50.984;5.822;2023-10-31T10:38:07;12.60;99.90
24450;DHT22;13349;50.984;5.822;2023-10-31T10:40:36;12.70;99.90
24450;DHT22;13349;50.984;5.822;2023-10-31T10:43:03;12.70;99.90
24450;DHT22;13349;50.984;5.822;2023-10-31T10:45:34;12.70;99.90
24450;DHT22;13349;50.984;5.822;2023-10-31T10:48:01;12.70;99.90
24450;DHT22;13349;50.984;5.822;2023-10-31T10:50:31;12.50;99.90
24450;DHT22;13349;50.984;5.822;2023-10-31T10:53:04;12.60;99.90
24450;DHT22;13349;50.984;5.822;2023-10-31T10:55:38;12.70;99.90
24450;DHT22;13349;50.984;5.822;2023-10-31T10:58:07;12.70;99.90
24450;DHT22;13349;50.984;5.822;2023-10-31T11:00:35;12.90;99.90
24450;DHT22;13349;50.984;5.822;2023-10-31T11:03:02;12.90;99.90
24450;DHT22;13349;50.984;5.822;2023-10-31T11:05:30;13.10;99.90
24450;DHT22;13349;50.984;5.822;2023-10-31T11:07:58;12.90;17.40
24450;DHT22;13349;50.984;5.822;2023-10-31T11:10:26;12.90;1.00
24450;DHT22;13349;50.984;5.822;2023-10-31T11:12:55;12.80;1.00
24450;DHT22;13349;50.984;5.822;2023-10-31T11:15:23;12.90;99.90
24450;DHT22;13349;50.984;5.822;2023-10-31T11:17:50;13.20;1.00
24450;DHT22;13349;50.984;5.822;2023-10-31T11:20:17;13.50;1.00
24450;DHT22;13349;50.984;5.822;2023-10-31T11:22:45;13.50;99.90
24450;DHT22;13349;50.984;5.822;2023-10-31T11:25:15;13.40;99.90
24450;DHT22;13349;50.984;5.822;2023-10-31T11:27:45;13.20;1.00
24450;DHT22;13349;50.984;5.822;2023-10-31T11:30:21;13.30;1.00
24450;DHT22;13349;50.984;5.822;2023-10-31T11:32:48;13.10;1.00
24450;DHT22;13349;50.984;5.822;2023-10-31T11:35:16;13.30;1.00
24450;DHT22;13349;50.984;5.822;2023-10-31T11:37:43;13.30;1.00
24450;DHT22;13349;50.984;5.822;2023-10-31T11:40:20;13.40;99.90
24450;DHT22;13349;50.984;5.822;2023-10-31T11:42:47;13.20;99.90
24450;DHT22;13349;50.984;5.822;2023-10-31T11:45:27;13.20;17.80
24450;DHT22;13349;50.984;5.822;2023-10-31T11:47:55;13.30;1.00
24450;DHT22;13349;50.984;5.822;2023-10-31T11:50:22;13.60;91.20
24450;DHT22;13349;50.984;5.822;2023-10-31T11:53:05;13.70;1.00
24450;DHT22;13349;50.984;5.822;2023-10-31T11:55:35;13.70;1.00
24450;DHT22;13349;50.984;5.822;2023-10-31T11:58:16;13.90;1.00
24450;DHT22;13349;50.984;5.822;2023-10-31T12:00:44;14.10;99.90
24450;DHT22;13349;50.984;5.822;2023-10-31T12:03:12;14.00;1.00
24450;DHT22;13349;50.984;5.822;2023-10-31T12:05:39;13.80;1.00
24450;DHT22;13349;50.984;5.822;2023-10-31T12:08:06;13.50;1.00
24450;DHT22;13349;50.984;5.822;2023-10-31T12:10:33;13.30;1.00
24450;DHT22;13349;50.984;5.822;2023-10-31T12:12:59;13.40;1.00
24450;DHT22;13349;50.984;5.822;2023-10-31T12:15:26;13.50;1.00
24450;DHT22;13349;50.984;5.822;2023-10-31T12:17:58;13.60;1.00
24450;DHT22;13349;50.984;5.822;2023-10-31T12:20:25;13.60;1.00
24450;DHT22;13349;50.984;5.822;2023-10-31T12:23:02;13.60;99.90
24450;DHT22;13349;50.984;5.822;2023-10-31T12:25:29;13.80;99.90
24450;DHT22;13349;50.984;5.822;2023-10-31T12:28:00;13.70;99.90
24450;DHT22;13349;50.984;5.822;2023-10-31T12:30:27;13.60;99.90
24450;DHT22;13349;50.984;5.822;2023-10-31T12:32:55;13.40;1.00
24450;DHT22;13349;50.984;5.822;2023-10-31T12:35:24;13.30;99.90
24450;DHT22;13349;50.984;5.822;2023-10-31T12:37:52;13.30;99.90
24450;DHT22;13349;50.984;5.822;2023-10-31T12:40:20;13.20;99.90
24450;DHT22;13349;50.984;5.822;2023-10-31T12:42:48;13.30;99.90
24450;DHT22;13349;50.984;5.822;2023-10-31T12:45:15;13.40;99.90
24450;DHT22;13349;50.984;5.822;2023-10-31T12:47:42;13.70;1.00
24450;DHT22;13349;50.984;5.822;2023-10-31T12:50:11;14.00;99.90
24450;DHT22;13349;50.984;5.822;2023-10-31T12:52:46;14.40;94.20
24450;DHT22;13349;50.984;5.822;2023-10-31T12:55:14;14.50;1.00
24450;DHT22;13349;50.984;5.822;2023-10-31T12:57:41;14.40;1.00
24450;DHT22;13349;50.984;5.822;2023-10-31T13:00:09;14.60;1.00
24450;DHT22;13349;50.984;5.822;2023-10-31T13:02:38;14.80;99.90
24450;DHT22;13349;50.984;5.822;2023-10-31T13:05:12;14.90;1.00
24450;DHT22;13349;50.984;5.822;2023-10-31T13:07:39;15.00;1.00
24450;DHT22;13349;50.984;5.822;2023-10-31T13:10:08;15.00;1.00
24450;DHT22;13349;50.984;5.822;2023-10-31T13:12:35;14.90;1.00
24450;DHT22;13349;50.984;5.822;2023-10-31T13:15:03;15.20;1.00
24450;DHT22;13349;50.984;5.822;2023-10-31T13:17:31;15.20;99.90
24450;DHT22;13349;50.984;5.822;2023-10-31T13:19:57;14.70;99.90
24450;DHT22;13349;50.984;5.822;2023-10-31T13:22:24;15.00;99.90
24450;DHT22;13349;50.984;5.822;2023-10-31T13:24:52;15.20;99.90
24450;DHT22;13349;50.984;5.822;2023-10-31T13:27:20;15.30;99.90
24450;DHT22;13349;50.984;5.822;2023-10-31T13:29:47;15.10;99.90
24450;DHT22;13349;50.984;5.822;2023-10-31T13:32:15;14.60;99.90
24450;DHT22;13349;50.984;5.822;2023-10-31T13:34:43;14.30;1.00
24450;DHT22;13349;50.984;5.822;2023-10-31T13:37:10;14.40;1.00
24450;DHT22;13349;50.984;5.822;2023-10-31T13:39:36;14.20;1.00
24450;DHT22;13349;50.984;5.822;2023-10-31T13:42:04;13.90;1.00
24450;DHT22;13349;50.984;5.822;2023-10-31T13:44:32;13.90;99.90
24450;DHT22;13349;50.984;5.822;2023-10-31T13:46:59;13.80;99.90
24450;DHT22;13349;50.984;5.822;2023-10-31T13:49:26;13.80;1.00
24450;DHT22;13349;50.984;5.822;2023-10-31T13:51:53;13.70;1.00
24450;DHT22;13349;50.984;5.822;2023-10-31T13:54:20;13.60;1.00
24450;DHT22;13349;50.984;5.822;2023-10-31T13:56:47;13.50;96.80
24450;DHT22;13349;50.984;5.822;2023-10-31T13:59:14;13.50;99.90
24450;DHT22;13349;50.984;5.822;2023-10-31T14:01:43;13.50;1.00
24450;DHT22;13349;50.984;5.822;2023-10-31T14:04:11;13.50;1.00
24450;DHT22;13349;50.984;5.822;2023-10-31T14:06:39;13.50;1.00
24450;DHT22;13349;50.984;5.822;2023-10-31T14:09:06;13.50;52.40
24450;DHT22;13349;50.984;5.822;2023-10-31T14:11:33;13.40;99.90
24450;DHT22;13349;50.984;5.822;2023-10-31T14:14:00;13.30;1.00
24450;DHT22;13349;50.984;5.822;2023-10-31T14:16:31;13.20;1.00
24450;DHT22;13349;50.984;5.822;2023-10-31T14:19:00;13.10;99.90
24450;DHT22;13349;50.984;5.822;2023-10-31T14:21:27;13.00;99.90
24450;DHT22;13349;50.984;5.822;2023-10-31T14:23:54;12.90;1.00
24450;DHT22;13349;50.984;5.822;2023-10-31T14:26:21;12.80;1.00
24450;DHT22;13349;50.984;5.822;2023-10-31T14:28:48;12.60;1.00
24450;DHT22;13349;50.984;5.822;2023-10-31T14:31:16;12.60;99.90
24450;DHT22;13349;50.984;5.822;2023-10-31T14:33:42;12.40;99.90
24450;DHT22;13349;50.984;5.822;2023-10-31T14:36:11;12.30;99.90
24450;DHT22;13349;50.984;5.822;2023-10-31T14:38:38;12.20;99.90
24450;DHT22;13349;50.984;5.822;2023-10-31T14:41:06;12.10;99.90
24450;DHT22;13349;50.984;5.822;2023-10-31T14:43:33;11.90;99.90
24450;DHT22;13349;50.984;5.822;2023-10-31T14:46:01;11.80;99.90
24450;DHT22;13349;50.984;5.822;2023-10-31T14:48:28;11.70;99.90
24450;DHT22;13349;50.984;5.822;2023-10-31T14:50:55;11.60;99.90
24450;DHT22;13349;50.984;5.822;2023-10-31T14:53:24;11.50;99.90
24450;DHT22;13349;50.984;5.822;2023-10-31T14:55:50;11.40;99.90
24450;DHT22;13349;50.984;5.822;2023-10-31T14:58:17;11.40;99.90
24450;DHT22;13349;50.984;5.822;2023-10-31T15:00:44;11.30;99.90
24450;DHT22;13349;50.984;5.822;2023-10-31T15:03:11;11.30;99.90
24450;DHT22;13349;50.984;5.822;2023-10-31T15:05:38;11.40;99.90
24450;DHT22;13349;50.984;5.822;2023-10-31T15:08:05;11.40;99.90
24450;DHT22;13349;50.984;5.822;2023-10-31T15:10:34;11.40;99.90
24450;DHT22;13349;50.984;5.822;2023-10-31T15:13:01;11.40;99.90
24450;DHT22;13349;50.984;5.822;2023-10-31T15:15:28;11.40;99.90
24450;DHT22;13349;50.984;5.822;2023-10-31T15:17:57;11.40;99.90
24450;DHT22;13349;50.984;5.822;2023-10-31T15:20:26;11.40;99.90
24450;DHT22;13349;50.984;5.822;2023-10-31T15:22:52;11.50;99.90
24450;DHT22;13349;50.984;5.822;2023-10-31T15:25:19;11.40;99.90
24450;DHT22;13349;50.984;5.822;2023-10-31T15:27:48;11.40;99.90
24450;DHT22;13349;50.984;5.822;2023-10-31T15:30:15;11.40;99.90
24450;DHT22;13349;50.984;5.822;2023-10-31T15:32:42;11.40;99.90
24450;DHT22;13349;50.984;5.822;2023-10-31T15:35:08;11.40;99.90